createdAt,value
2017-07-15T00:01:54.453Z,87.93
2017-07-15T00:04:20.377Z,88.26
2017-07-15T00:06:46.214Z,87.84
2017-07-15T00:09:12.100Z,87.57
2017-07-15T00:11:38.107Z,87.44
2017-07-15T00:14:03.944Z,88.30
2017-07-15T00:16:30.397Z,87.67
2017-07-15T00:18:56.305Z,88.35
2017-07-15T00:21:22.235Z,87.91
2017-07-15T00:23:48.152Z,88.36
2017-07-15T00:26:13.988Z,88.10
2017-07-15T00:28:39.912Z,89.07
2017-07-15T00:31:05.808Z,89.06
2017-07-15T00:33:31.657Z,88.72
2017-07-15T00:35:57.564Z,86.79
2017-07-15T00:38:24.280Z,87.86
2017-07-15T00:40:50.165Z,87.84
2017-07-15T00:43:16.007Z,88.41
2017-07-15T00:45:41.845Z,88.77
2017-07-15T00:48:07.872Z,89.26
2017-07-15T00:50:33.777Z,88.76
2017-07-15T00:52:59.732Z,88.67
2017-07-15T00:55:25.618Z,88.42
2017-07-15T00:57:51.441Z,88.40
2017-07-15T01:00:17.329Z,88.50
2017-07-15T01:02:43.157Z,88.30
2017-07-15T01:05:09.024Z,88.14
2017-07-15T01:07:34.920Z,88.41
2017-07-15T01:10:00.755Z,88.69
2017-07-15T01:12:26.640Z,87.70
2017-07-15T01:14:52.483Z,88.08
2017-07-15T01:17:18.401Z,87.25
2017-07-15T01:19:44.401Z,87.96
2017-07-15T01:22:10.244Z,88.01
2017-07-15T01:24:36.127Z,88.57
2017-07-15T01:27:01.954Z,87.84
2017-07-15T01:29:27.796Z,88.62
2017-07-15T01:31:53.743Z,88.94
2017-07-15T01:34:19.582Z,88.00
2017-07-15T01:36:45.451Z,88.09
2017-07-15T01:39:11.385Z,88.31
2017-07-15T01:41:37.224Z,88.31
2017-07-15T01:44:03.109Z,87.61
2017-07-15T01:46:29.032Z,88.18
2017-07-15T01:48:54.872Z,88.36
2017-07-15T01:51:20.814Z,87.88
2017-07-15T01:53:46.718Z,87.87
2017-07-15T01:56:12.599Z,88.11
2017-07-15T01:58:38.544Z,88.05
2017-07-15T02:01:04.503Z,88.37
2017-07-15T02:03:30.382Z,88.91
2017-07-15T02:05:56.312Z,88.99
2017-07-15T02:08:22.254Z,88.33
2017-07-15T02:10:48.076Z,88.91
2017-07-15T02:13:13.892Z,88.34
2017-07-15T02:15:39.814Z,88.05
2017-07-15T02:18:05.807Z,88.09
2017-07-15T02:20:31.724Z,87.82
2017-07-15T02:22:57.583Z,88.29
2017-07-15T02:25:23.458Z,88.18
2017-07-15T02:27:49.499Z,88.14
2017-07-15T02:30:15.458Z,88.33
2017-07-15T02:32:41.287Z,88.30
2017-07-15T02:35:08.101Z,88.43
2017-07-15T02:37:33.970Z,88.55
2017-07-15T02:39:59.829Z,88.91
2017-07-15T02:42:25.763Z,88.61
2017-07-15T02:44:51.618Z,88.71
2017-07-15T02:47:17.677Z,88.09
2017-07-15T02:49:43.626Z,87.34
2017-07-15T02:52:09.450Z,88.17
2017-07-15T02:54:35.320Z,87.32
2017-07-15T02:57:01.167Z,87.41
2017-07-15T02:59:27.151Z,87.59
2017-07-15T03:01:53.025Z,88.83
2017-07-15T03:04:18.901Z,89.40
2017-07-15T03:06:44.765Z,88.60
2017-07-15T03:09:10.613Z,88.62
2017-07-15T03:11:36.482Z,89.93
2017-07-15T03:14:02.397Z,90.23
2017-07-15T03:16:28.240Z,89.75
2017-07-15T03:18:54.165Z,89.68
2017-07-15T03:21:20.060Z,89.67
2017-07-15T03:23:45.965Z,90.01
2017-07-15T03:26:11.805Z,90.05
2017-07-15T03:28:37.721Z,89.82
2017-07-15T03:31:03.681Z,89.61
2017-07-15T03:33:29.568Z,89.78
2017-07-15T03:35:55.440Z,89.80
2017-07-15T03:38:21.299Z,89.92
2017-07-15T03:40:47.212Z,89.57
2017-07-15T03:43:14.082Z,89.39
2017-07-15T03:45:39.895Z,88.95
2017-07-15T03:48:05.712Z,89.36
2017-07-15T03:50:31.565Z,89.57
2017-07-15T03:52:57.408Z,89.70
2017-07-15T03:55:23.423Z,89.77
2017-07-15T03:57:49.249Z,89.78
2017-07-15T04:00:15.238Z,89.16
2017-07-15T04:02:41.054Z,89.42
2017-07-15T04:05:06.859Z,89.33
2017-07-15T04:07:32.699Z,88.37
2017-07-15T04:09:58.531Z,88.53
2017-07-15T04:12:24.382Z,89.06
2017-07-15T04:14:50.183Z,88.60
2017-07-15T04:17:15.965Z,88.29
2017-07-15T04:19:41.824Z,88.78
2017-07-15T04:22:07.640Z,87.94
2017-07-15T04:24:33.457Z,88.71
2017-07-15T04:26:59.290Z,87.66
2017-07-15T04:29:25.246Z,87.71
2017-07-15T04:31:51.115Z,87.32
2017-07-15T04:34:16.929Z,87.87
2017-07-15T04:36:42.766Z,88.83
2017-07-15T04:39:08.570Z,88.47
2017-07-15T04:41:34.417Z,88.19
2017-07-15T04:44:00.325Z,88.55
2017-07-15T04:46:26.155Z,89.11
2017-07-15T04:48:52.006Z,88.95
2017-07-15T04:51:17.841Z,88.41
2017-07-15T04:53:43.648Z,88.21
2017-07-15T04:56:09.481Z,89.05
2017-07-15T04:58:35.313Z,89.04
2017-07-15T05:01:01.272Z,88.27
2017-07-15T05:03:27.197Z,88.20
2017-07-15T05:05:53.096Z,88.16
2017-07-15T05:08:19.008Z,88.48
2017-07-15T05:10:44.843Z,88.34
2017-07-15T05:13:10.666Z,87.48
2017-07-15T05:15:36.695Z,87.59
2017-07-15T05:18:02.746Z,87.12
2017-07-15T05:20:28.721Z,87.00
2017-07-15T05:23:10.539Z,86.34
2017-07-15T05:25:36.465Z,85.14
2017-07-15T05:28:02.325Z,85.94
2017-07-15T05:30:28.189Z,85.37
2017-07-15T05:32:54.002Z,85.73
2017-07-15T05:35:19.887Z,84.85
2017-07-15T05:37:45.827Z,84.28
2017-07-15T05:40:11.662Z,83.61
2017-07-15T05:42:37.491Z,83.70
2017-07-15T05:45:03.384Z,83.08
2017-07-15T05:47:29.313Z,83.87
2017-07-15T05:49:55.141Z,83.57
2017-07-15T05:52:20.962Z,83.47
2017-07-15T05:54:46.962Z,81.42
2017-07-15T05:57:12.763Z,80.08
2017-07-15T05:59:38.620Z,80.34
2017-07-15T06:02:04.662Z,79.96
2017-07-15T06:04:30.554Z,79.86
2017-07-15T06:06:56.467Z,80.84
2017-07-15T06:09:22.523Z,80.08
2017-07-15T06:11:48.435Z,79.85
2017-07-15T06:14:14.293Z,80.87
2017-07-15T06:16:40.181Z,79.57
2017-07-15T06:19:06.098Z,80.00
2017-07-15T06:21:31.942Z,78.91
2017-07-15T06:23:57.753Z,78.20
2017-07-15T06:26:23.538Z,76.07
2017-07-15T06:28:49.377Z,75.75
2017-07-15T06:31:15.187Z,75.08
2017-07-15T06:33:41.038Z,76.75
2017-07-15T06:36:06.863Z,74.73
2017-07-15T06:38:32.706Z,74.44
2017-07-15T06:40:58.507Z,75.95
2017-07-15T06:43:24.317Z,75.25
2017-07-15T06:45:50.213Z,74.24
2017-07-15T06:48:16.024Z,73.43
2017-07-15T06:50:41.983Z,71.38
2017-07-15T06:53:07.787Z,69.91
2017-07-15T06:55:33.697Z,68.19
2017-07-15T06:57:59.634Z,68.36
2017-07-15T07:00:25.490Z,67.16
2017-07-15T07:02:51.348Z,67.84
2017-07-15T07:05:17.342Z,66.48
2017-07-15T07:07:43.143Z,64.54
2017-07-15T07:10:08.985Z,64.85
2017-07-15T07:12:34.805Z,63.70
2017-07-15T07:15:00.676Z,66.61
2017-07-15T07:17:33.413Z,63.10
2017-07-15T07:19:59.261Z,64.44
2017-07-15T07:22:25.085Z,63.13
2017-07-15T07:24:51.045Z,64.20
2017-07-15T07:27:16.894Z,60.88
2017-07-15T07:29:42.711Z,60.04
2017-07-15T07:32:08.511Z,58.71
2017-07-15T07:34:34.329Z,60.60
2017-07-15T07:37:00.123Z,64.48
2017-07-15T07:39:25.966Z,63.94
2017-07-15T07:41:51.803Z,62.86
2017-07-15T07:44:17.609Z,62.93
2017-07-15T07:46:43.474Z,61.57
2017-07-15T07:49:09.286Z,63.31
2017-07-15T07:51:35.186Z,63.42
2017-07-15T07:54:07.993Z,61.93
2017-07-15T07:56:33.849Z,60.47
2017-07-15T07:58:59.689Z,61.58
2017-07-15T08:01:25.624Z,60.80
2017-07-15T08:03:51.481Z,61.07
2017-07-15T08:06:17.293Z,62.82
2017-07-15T08:08:43.135Z,55.00
2017-07-15T08:11:08.944Z,56.77
2017-07-15T08:13:34.809Z,59.19
2017-07-15T08:16:00.659Z,60.53
2017-07-15T08:18:26.582Z,60.07
2017-07-15T08:20:52.547Z,60.53
2017-07-15T08:23:18.399Z,63.84
2017-07-15T08:25:44.219Z,59.31
2017-07-15T08:28:10.052Z,56.97
2017-07-15T08:30:35.880Z,54.87
2017-07-15T08:33:01.811Z,54.33
2017-07-15T08:35:27.624Z,53.95
2017-07-15T08:37:53.531Z,53.42
2017-07-15T08:40:19.371Z,54.49
2017-07-15T08:42:45.190Z,51.15
2017-07-15T08:45:11.048Z,52.23
2017-07-15T08:47:36.916Z,53.30
2017-07-15T08:50:02.730Z,54.37
2017-07-15T08:52:28.635Z,49.80
2017-07-15T08:54:54.479Z,49.20
2017-07-15T08:57:20.357Z,48.61
2017-07-15T08:59:46.322Z,47.12
2017-07-15T09:02:12.180Z,46.94
2017-07-15T09:04:38.233Z,46.59
2017-07-15T09:07:04.042Z,44.98
2017-07-15T09:09:29.891Z,45.44
2017-07-15T09:11:55.810Z,47.66
2017-07-15T09:14:21.761Z,47.14
2017-07-15T09:16:47.653Z,51.96
2017-07-15T09:19:13.614Z,48.19
2017-07-15T09:21:39.479Z,47.59
2017-07-15T09:24:05.321Z,45.67
2017-07-15T09:26:31.170Z,46.78
2017-07-15T09:28:56.987Z,47.89
2017-07-15T09:31:22.847Z,48.71
2017-07-15T09:33:48.664Z,48.00
2017-07-15T09:36:14.503Z,46.33
2017-07-15T09:38:40.553Z,43.67
2017-07-15T09:41:06.353Z,43.96
2017-07-15T09:43:32.288Z,43.30
2017-07-15T09:45:58.199Z,43.39
2017-07-15T09:48:24.037Z,47.25
2017-07-15T09:50:49.951Z,44.27
2017-07-15T09:53:15.817Z,44.76
2017-07-15T09:55:41.670Z,40.90
2017-07-15T09:58:08.808Z,42.14
2017-07-15T10:00:34.711Z,41.34
2017-07-15T10:03:00.559Z,39.42
2017-07-15T10:05:26.571Z,38.65
2017-07-15T10:07:52.503Z,40.76
2017-07-15T10:10:18.419Z,41.79
2017-07-15T10:12:44.392Z,41.90
2017-07-15T10:15:10.246Z,43.23
2017-07-15T10:17:36.204Z,44.38
2017-07-15T10:20:02.046Z,43.13
2017-07-15T10:22:27.951Z,43.64
2017-07-15T10:24:53.974Z,40.55
2017-07-15T10:27:19.931Z,41.63
2017-07-15T10:29:45.749Z,43.69
2017-07-15T10:32:11.582Z,43.05
2017-07-15T10:34:37.444Z,43.75
2017-07-15T10:37:03.270Z,44.56
2017-07-15T10:39:29.198Z,42.75
2017-07-15T10:41:55.031Z,41.42
2017-07-15T10:44:20.860Z,38.22
2017-07-15T10:46:46.722Z,38.19
2017-07-15T10:49:12.730Z,38.97
2017-07-15T10:51:38.692Z,39.78
2017-07-15T10:54:04.574Z,39.37
2017-07-15T10:56:30.536Z,37.56
2017-07-15T10:58:56.442Z,38.07
2017-07-15T11:01:22.341Z,41.73
2017-07-15T11:03:48.810Z,42.45
2017-07-15T11:06:14.673Z,43.13
2017-07-15T11:08:40.494Z,41.58
2017-07-15T11:11:06.568Z,38.25
2017-07-15T11:13:32.466Z,38.12
2017-07-15T11:15:58.379Z,37.35
2017-07-15T11:18:24.250Z,36.61
2017-07-15T11:20:50.281Z,36.99
2017-07-15T11:23:16.116Z,39.16
2017-07-15T11:25:41.947Z,41.35
2017-07-15T11:28:07.808Z,41.38
2017-07-15T11:30:33.639Z,42.04
2017-07-15T11:32:59.547Z,42.85
2017-07-15T11:35:25.370Z,42.96
2017-07-15T11:37:51.201Z,44.32
2017-07-15T11:40:17.077Z,41.55
2017-07-15T11:42:42.993Z,38.77
2017-07-15T11:45:08.855Z,38.27
2017-07-15T11:47:34.682Z,38.65
2017-07-15T11:50:00.707Z,38.32
2017-07-15T11:52:26.551Z,38.83
2017-07-15T11:54:52.379Z,38.86
2017-07-15T11:57:18.224Z,38.23
2017-07-15T11:59:44.168Z,36.06
2017-07-15T12:02:10.208Z,38.50
2017-07-15T12:04:36.094Z,36.81
2017-07-15T12:07:01.931Z,35.49
2017-07-15T12:09:27.851Z,33.16
2017-07-15T12:11:53.757Z,37.27
2017-07-15T12:14:19.702Z,38.95
2017-07-15T12:16:45.608Z,39.33
2017-07-15T12:19:11.559Z,40.22
2017-07-15T12:21:37.442Z,37.20
2017-07-15T12:24:03.335Z,33.75
2017-07-15T12:26:29.165Z,33.55
2017-07-15T12:28:54.992Z,34.09
2017-07-15T12:31:20.963Z,31.65
2017-07-15T12:33:46.821Z,32.55
2017-07-15T12:36:12.681Z,32.73
2017-07-15T12:38:38.580Z,30.41
2017-07-15T12:41:04.429Z,35.20
2017-07-15T12:43:30.300Z,35.63
2017-07-15T12:45:56.277Z,35.91
2017-07-15T12:48:22.115Z,38.11
2017-07-15T12:50:47.990Z,38.51
2017-07-15T12:53:14.004Z,37.49
2017-07-15T12:55:39.885Z,39.12
2017-07-15T12:58:06.949Z,37.78
2017-07-15T13:00:32.893Z,36.87
2017-07-15T13:02:58.937Z,37.48
2017-07-15T13:05:24.937Z,37.97
2017-07-15T13:07:50.896Z,37.25
2017-07-15T13:10:16.734Z,38.68
2017-07-15T13:12:43.151Z,39.13
2017-07-15T13:15:09.028Z,38.55
2017-07-15T13:17:35.084Z,37.32
2017-07-15T13:20:00.916Z,36.00
2017-07-15T13:22:26.798Z,32.68
2017-07-15T13:24:52.753Z,36.76
2017-07-15T13:27:18.729Z,36.71
2017-07-15T13:29:44.761Z,38.99
2017-07-15T13:32:10.647Z,38.61
2017-07-15T13:34:36.518Z,36.78
2017-07-15T13:37:02.428Z,34.44
2017-07-15T13:39:28.433Z,37.16
2017-07-15T13:41:54.419Z,37.81
2017-07-15T13:44:20.254Z,36.64
2017-07-15T13:46:46.088Z,35.62
2017-07-15T13:49:12.018Z,32.00
2017-07-15T13:51:37.848Z,32.28
2017-07-15T13:54:03.665Z,31.88
2017-07-15T13:56:29.532Z,30.96
2017-07-15T13:58:55.383Z,32.25
2017-07-15T14:01:21.280Z,35.14
2017-07-15T14:03:47.129Z,36.45
2017-07-15T14:06:13.023Z,39.34
2017-07-15T14:08:39.421Z,38.92
2017-07-15T14:11:05.281Z,38.31
2017-07-15T14:13:31.353Z,39.89
2017-07-15T14:15:57.344Z,38.03
2017-07-15T14:18:23.223Z,36.52
2017-07-15T14:20:49.115Z,37.03
2017-07-15T14:23:14.987Z,36.20
2017-07-15T14:25:40.827Z,37.00
2017-07-15T14:28:06.689Z,37.46
2017-07-15T14:30:32.514Z,37.85
2017-07-15T14:32:58.536Z,36.92
2017-07-15T14:35:24.349Z,35.34
2017-07-15T14:37:50.243Z,36.21
2017-07-15T14:40:16.105Z,36.12
2017-07-15T14:42:41.918Z,35.64
2017-07-15T14:45:07.806Z,35.50
2017-07-15T14:47:33.628Z,38.25
2017-07-15T14:49:59.564Z,38.92
2017-07-15T14:52:25.421Z,37.96
2017-07-15T14:54:51.238Z,37.98
2017-07-15T14:57:17.107Z,39.81
2017-07-15T14:59:43.012Z,38.19
2017-07-15T15:02:08.915Z,36.32
2017-07-15T15:04:34.776Z,34.83
2017-07-15T15:07:00.660Z,32.74
2017-07-15T15:09:26.477Z,32.27
2017-07-15T15:11:52.436Z,35.21
2017-07-15T15:14:18.244Z,36.31
2017-07-15T15:16:44.059Z,36.57
2017-07-15T15:19:09.998Z,39.05
2017-07-15T15:21:35.836Z,37.96
2017-07-15T15:24:01.718Z,37.80
2017-07-15T15:26:27.773Z,36.54
2017-07-15T15:28:53.625Z,38.11
2017-07-15T15:31:19.496Z,38.44
2017-07-15T15:33:45.310Z,39.00
2017-07-15T15:36:11.233Z,37.47
2017-07-15T15:38:37.137Z,37.31
2017-07-15T15:41:02.992Z,38.83
2017-07-15T15:43:28.892Z,39.60
2017-07-15T15:45:54.805Z,39.97
2017-07-15T15:48:20.696Z,40.72
2017-07-15T15:50:46.523Z,41.64
2017-07-15T15:53:12.503Z,42.07
2017-07-15T15:55:38.370Z,40.53
2017-07-15T15:58:05.821Z,39.54
2017-07-15T16:00:31.804Z,42.74
2017-07-15T16:02:57.667Z,42.41
2017-07-15T16:05:23.620Z,40.69
2017-07-15T16:07:49.459Z,41.15
2017-07-15T16:10:15.320Z,41.33
2017-07-15T16:12:41.147Z,40.79
2017-07-15T16:15:07.074Z,39.87
2017-07-15T16:17:32.913Z,39.90
2017-07-15T16:19:58.807Z,40.25
2017-07-15T16:22:24.783Z,40.49
2017-07-15T16:24:50.682Z,41.69
2017-07-15T16:27:16.684Z,41.70
2017-07-15T16:29:43.008Z,40.89
2017-07-15T16:32:08.859Z,41.08
2017-07-15T16:34:34.729Z,41.25
2017-07-15T16:37:00.593Z,42.06
2017-07-15T16:39:26.517Z,41.02
2017-07-15T16:41:52.415Z,41.41
2017-07-15T16:44:18.314Z,42.33
2017-07-15T16:46:44.181Z,42.31
2017-07-15T16:49:10.003Z,42.83
2017-07-15T16:51:36.101Z,41.95
2017-07-15T16:54:01.931Z,43.50
2017-07-15T16:56:27.885Z,43.21
2017-07-15T16:58:53.763Z,44.11
2017-07-15T17:01:19.692Z,42.75
2017-07-15T17:03:45.537Z,43.39
2017-07-15T17:06:11.339Z,44.33
2017-07-15T17:08:37.201Z,44.45
2017-07-15T17:11:03.045Z,44.12
2017-07-15T17:13:28.968Z,44.13
2017-07-15T17:15:54.895Z,43.63
2017-07-15T17:18:20.821Z,44.65
2017-07-15T17:20:46.695Z,45.34
2017-07-15T17:23:12.577Z,43.81
2017-07-15T17:25:38.489Z,42.72
2017-07-15T17:28:04.313Z,44.25
2017-07-15T17:30:30.158Z,44.66
2017-07-15T17:32:56.055Z,44.18
2017-07-15T17:35:22.062Z,46.32
2017-07-15T17:37:47.968Z,44.99
2017-07-15T17:40:13.845Z,44.28
2017-07-15T17:42:39.673Z,43.41
2017-07-15T17:45:05.494Z,44.09
2017-07-15T17:47:31.447Z,44.54
2017-07-15T17:49:57.273Z,44.87
2017-07-15T17:52:23.156Z,44.87
2017-07-15T17:54:49.006Z,45.34
2017-07-15T17:57:14.957Z,45.07
2017-07-15T17:59:40.773Z,47.14
2017-07-15T18:02:06.629Z,45.86
2017-07-15T18:04:32.490Z,45.78
2017-07-15T18:06:58.329Z,46.84
2017-07-15T18:09:24.224Z,46.92
2017-07-15T18:11:50.102Z,46.36
2017-07-15T18:14:15.973Z,46.95
2017-07-15T18:16:41.942Z,47.75
2017-07-15T18:19:07.800Z,48.77
2017-07-15T18:21:33.780Z,49.65
2017-07-15T18:23:59.585Z,48.60
2017-07-15T18:26:25.390Z,50.54
2017-07-15T18:28:51.263Z,52.07
2017-07-15T18:31:17.090Z,51.97
2017-07-15T18:33:42.908Z,51.52
2017-07-15T18:36:08.791Z,52.28
2017-07-15T18:38:34.616Z,53.25
2017-07-15T18:41:07.318Z,55.32
2017-07-15T18:43:33.453Z,53.85
2017-07-15T18:45:59.312Z,54.98
2017-07-15T18:48:25.145Z,54.22
2017-07-15T18:50:51.007Z,52.99
2017-07-15T18:53:16.813Z,53.65
2017-07-15T18:55:42.662Z,54.79
2017-07-15T18:58:09.241Z,55.65
2017-07-15T19:00:42.157Z,54.57
2017-07-15T19:03:08.026Z,54.86
2017-07-15T19:05:33.847Z,54.91
2017-07-15T19:07:59.697Z,55.25
2017-07-15T19:10:25.545Z,57.17
2017-07-15T19:12:51.390Z,57.44
2017-07-15T19:15:17.388Z,57.94
2017-07-15T19:17:43.253Z,57.52
2017-07-15T19:20:09.128Z,58.52
2017-07-15T19:22:35.057Z,58.52
2017-07-15T19:25:01.445Z,58.15
2017-07-15T19:27:27.304Z,56.59
2017-07-15T19:29:53.246Z,57.56
2017-07-15T19:32:19.179Z,57.20
2017-07-15T19:34:45.985Z,59.55
2017-07-15T19:37:11.796Z,59.81
2017-07-15T19:39:37.667Z,59.50
2017-07-15T19:42:03.562Z,60.99
2017-07-15T19:44:29.459Z,59.27
2017-07-15T19:46:55.522Z,62.28
2017-07-15T19:49:21.537Z,64.34
2017-07-15T19:51:47.455Z,64.44
2017-07-15T19:54:13.388Z,64.53
2017-07-15T19:56:39.228Z,64.45
2017-07-15T19:59:05.269Z,64.35
2017-07-15T20:01:31.140Z,64.93
2017-07-15T20:03:57.099Z,65.11
2017-07-15T20:06:22.989Z,65.85
2017-07-15T20:08:48.901Z,66.64
2017-07-15T20:11:14.923Z,66.44
2017-07-15T20:13:40.902Z,64.05
2017-07-15T20:16:06.753Z,64.47
2017-07-15T20:18:32.692Z,64.34
2017-07-15T20:20:58.577Z,65.68
2017-07-15T20:23:24.619Z,66.36
2017-07-15T20:25:50.623Z,66.11
2017-07-15T20:28:16.452Z,66.21
2017-07-15T20:30:42.404Z,67.12
2017-07-15T20:33:08.303Z,68.41
2017-07-15T20:35:34.240Z,68.49
2017-07-15T20:38:00.099Z,69.39
2017-07-15T20:40:25.978Z,70.14
2017-07-15T20:42:51.972Z,69.97
2017-07-15T20:45:17.827Z,69.76
2017-07-15T20:47:43.680Z,71.30
2017-07-15T20:50:09.556Z,71.10
2017-07-15T20:52:41.424Z,71.43
2017-07-15T20:55:07.473Z,71.81
2017-07-15T20:57:33.403Z,71.77
2017-07-15T20:59:59.250Z,71.68
2017-07-15T21:02:25.123Z,72.19
2017-07-15T21:04:50.977Z,72.76
2017-07-15T21:07:16.898Z,72.34
2017-07-15T21:09:42.945Z,72.29
2017-07-15T21:12:08.795Z,70.62
2017-07-15T21:14:34.663Z,72.10
2017-07-15T21:17:00.524Z,71.77
2017-07-15T21:19:26.502Z,72.12
2017-07-15T21:21:52.363Z,72.60
2017-07-15T21:24:18.225Z,72.04
2017-07-15T21:26:44.109Z,71.98
2017-07-15T21:29:10.024Z,72.55
2017-07-15T21:31:35.956Z,72.57
2017-07-15T21:34:01.904Z,71.98
2017-07-15T21:36:27.777Z,72.64
2017-07-15T21:38:53.727Z,73.24
2017-07-15T21:41:19.613Z,73.59
2017-07-15T21:43:45.465Z,73.75
2017-07-15T21:46:11.363Z,73.99
2017-07-15T21:48:37.755Z,74.05
2017-07-15T21:51:03.660Z,73.80
2017-07-15T21:53:29.496Z,74.36
2017-07-15T21:55:55.381Z,73.42
2017-07-15T21:58:21.289Z,73.38
2017-07-15T22:00:47.181Z,73.88
2017-07-15T22:03:13.052Z,74.06
2017-07-15T22:05:38.953Z,74.18
2017-07-15T22:08:04.838Z,74.68
2017-07-15T22:10:30.673Z,74.43
2017-07-15T22:12:56.597Z,74.92
2017-07-15T22:15:22.485Z,75.70
2017-07-15T22:17:48.565Z,75.39
2017-07-15T22:20:14.872Z,75.57
2017-07-15T22:22:40.726Z,75.70
2017-07-15T22:25:06.592Z,75.69
2017-07-15T22:27:32.432Z,75.85
2017-07-15T22:29:58.343Z,75.94
2017-07-15T22:32:24.198Z,75.67
2017-07-15T22:34:53.871Z,76.19
2017-07-15T22:37:19.784Z,76.30
2017-07-15T22:39:45.625Z,76.49
2017-07-15T22:42:11.602Z,76.53
2017-07-15T22:44:37.672Z,76.30
2017-07-15T22:47:03.584Z,76.88
2017-07-15T22:49:29.499Z,77.19
2017-07-15T22:51:55.472Z,77.04
2017-07-15T22:54:21.332Z,76.99
2017-07-15T22:56:47.176Z,77.25
2017-07-15T22:59:14.769Z,76.94
2017-07-15T23:01:40.650Z,77.09
2017-07-15T23:04:06.553Z,76.92
2017-07-15T23:06:32.465Z,77.47
2017-07-15T23:08:58.300Z,77.63
2017-07-15T23:11:24.228Z,78.30
2017-07-15T23:13:50.101Z,78.00
2017-07-15T23:16:15.938Z,77.37
2017-07-15T23:18:43.793Z,77.24
2017-07-15T23:21:09.648Z,77.40
2017-07-15T23:23:36.220Z,77.36
2017-07-15T23:26:02.870Z,77.69
2017-07-15T23:28:28.743Z,77.59
2017-07-15T23:30:54.719Z,77.54
2017-07-15T23:33:20.570Z,77.75
2017-07-15T23:35:46.536Z,77.48
2017-07-15T23:38:12.426Z,77.43
2017-07-15T23:40:38.347Z,77.65
2017-07-15T23:43:04.184Z,78.87
2017-07-15T23:45:30.052Z,77.05
2017-07-15T23:47:55.922Z,77.46
2017-07-15T23:50:21.943Z,77.84
2017-07-15T23:52:54.840Z,78.00
2017-07-15T23:55:20.730Z,78.27
2017-07-15T23:57:46.668Z,78.00
